Roseau, MN

1:03 PM CDT on September 21, 2017 (GMT -0500)
Roseau Municipal-Billberg

Weather History for KROX - September, 2013

Change the Weather History Date:

Saturday, September 14, 2013

  Actual Average Record
Temperature  
Mean Temperature 63 °F -  
Max Temperature 71 °F 65 °F 87 °F (2006)
Min Temperature 55 °F 41 °F 26 °F (1964)
Degree Days  
Heating Degree Days 2    
Growing Degree Days 13 (Base 50)    
Moisture  
Dew Point 53 °F    
Average Humidity 72    
Maximum Humidity 88    
Minimum Humidity 57    
Precipitation  
Precipitation 0.00 in - - ()
Sea Level Pressure  
Sea Level Pressure 29.87 in    
Wind  
Wind Speed 11 mph (WSW)    
Max Wind Speed 16 mph    
Max Gust Speed 21 mph    
Visibility 10 miles    
Events Rain    
Averages and records for this station are not official NWS values.
T = Trace of Precipitation, MM = Missing Value Source: NWS Daily Summary

Daily Weather History Graph

Daily Weather History Graph

Search for Another Location

Airport or City:

Trip Planner

Search our weather history database for the weather conditions in past years. The results will help you decide how hot, cold, wet, or windy it might be!

Date:

Astronomy

Sep. 14, 2013 Rise Set
Actual Time 6:58 AM CDT 7:37 PM CDT
Civil Twilight 6:26 AM CDT 8:08 PM CDT
Nautical Twilight 5:48 AM CDT 8:46 PM CDT
Astronomical Twilight 5:08 AM CDT 9:26 PM CDT
Moon 4:38 PM CDT (9/14) 1:10 AM CDT (9/14)
Length of Visible Light 13h 42m
Length of Day
12h 38m
Waxing Gibbous, 72% of the Moon is Illuminated
Sep 14
Waxing Gibbous
Sep 19
Full
Sep 26
Last Quarter
Oct 4
New
Oct 11
First Quarter

Hourly Weather History & Observations

Time (CDT) Temp. Dew Point Humidity Pressure Visibility Wind Dir Wind Speed Gust Speed Precip Events Conditions
12:14 AM 60.8 °F 50.0 °F 68% 29.89 in 10.0 mi South 13.8 mph - N/A   Clear
12:34 AM 59.0 °F 50.0 °F 72% 29.88 in 10.0 mi South 13.8 mph - N/A   Clear
12:54 AM 59.0 °F 50.0 °F 72% 29.88 in 10.0 mi South 15.0 mph - N/A   Clear
1:14 AM 60.8 °F 50.0 °F 68% 29.88 in 10.0 mi SSW 16.1 mph - N/A   Clear
1:34 AM 60.8 °F 50.0 °F 68% 29.88 in 10.0 mi SSW 13.8 mph - N/A   Clear
1:54 AM 59.0 °F 50.0 °F 72% 29.88 in 10.0 mi South 11.5 mph - N/A   Clear
2:14 AM 60.8 °F 50.0 °F 68% 29.87 in 10.0 mi SSW 12.7 mph 17.3 mph N/A   Clear
2:34 AM 60.8 °F 50.0 °F 68% 29.86 in 10.0 mi South 11.5 mph - N/A   Clear
2:54 AM 59.0 °F 50.0 °F 72% 29.86 in 10.0 mi SSW 12.7 mph - N/A   Clear
3:14 AM 60.8 °F 50.0 °F 68% 29.86 in 10.0 mi SSW 12.7 mph 20.7 mph N/A   Clear
3:34 AM 60.8 °F 50.0 °F 68% 29.85 in 10.0 mi SSW 12.7 mph 18.4 mph N/A   Clear
3:54 AM 60.8 °F 50.0 °F 68% 29.85 in 10.0 mi SSW 13.8 mph - N/A   Clear
4:15 AM 60.8 °F 50.0 °F 68% 29.85 in 10.0 mi SSW 15.0 mph - N/A   Clear
4:34 AM 60.8 °F 50.0 °F 68% 29.85 in 10.0 mi SSW 12.7 mph - N/A   Clear
4:54 AM 60.8 °F 50.0 °F 68% 29.85 in 10.0 mi SSW 11.5 mph - N/A   Clear
5:15 AM 59.0 °F 50.0 °F 72% 29.85 in 10.0 mi SSW 12.7 mph - N/A   Clear
5:34 AM 59.0 °F 50.0 °F 72% 29.85 in 10.0 mi SSW 12.7 mph - N/A   Clear
5:54 AM 59.0 °F 50.0 °F 72% 29.84 in 10.0 mi SSW 11.5 mph - N/A   Clear
6:15 AM 57.2 °F 48.2 °F 72% 29.84 in 10.0 mi South 9.2 mph - N/A   Clear
6:34 AM 57.2 °F 48.2 °F 72% 29.83 in 10.0 mi South 10.4 mph - N/A   Clear
6:54 AM 55.4 °F 48.2 °F 77% 29.83 in 10.0 mi South 11.5 mph - N/A   Clear
7:15 AM 55.4 °F 48.2 °F 77% 29.83 in 10.0 mi South 10.4 mph - N/A   Clear
7:34 AM 55.4 °F 48.2 °F 77% 29.82 in 10.0 mi South 12.7 mph - N/A   Clear
7:54 AM 55.4 °F 50.0 °F 82% 29.82 in 10.0 mi South 12.7 mph - N/A   Clear
8:15 AM 57.2 °F 51.8 °F 82% 29.82 in 10.0 mi SSW 13.8 mph - N/A   Clear
8:34 AM 60.8 °F 51.8 °F 72% 29.82 in 10.0 mi SSW 15.0 mph - N/A   Clear
8:54 AM 62.6 °F 53.6 °F 72% 29.81 in 10.0 mi SSW 16.1 mph - N/A   Clear
9:15 AM 62.6 °F 53.6 °F 72% 29.81 in 10.0 mi SSW 12.7 mph 19.6 mph N/A   Clear
9:34 AM 64.4 °F 53.6 °F 68% 29.82 in 10.0 mi SSW 13.8 mph - N/A   Clear
9:54 AM 64.4 °F 53.6 °F 68% 29.81 in 10.0 mi SSW 16.1 mph 19.6 mph N/A   Clear
10:15 AM 64.4 °F 55.4 °F 73% 29.81 in 10.0 mi SSW 9.2 mph 18.4 mph N/A   Clear
10:34 AM 66.2 °F 53.6 °F 64% 29.81 in 10.0 mi SW 12.7 mph - N/A   Clear
10:54 AM 66.2 °F 55.4 °F 68% 29.82 in 10.0 mi SW 10.4 mph 16.1 mph N/A   Clear
11:15 AM 68.0 °F 55.4 °F 64% 29.81 in 10.0 mi WSW 8.1 mph - N/A   Clear
11:34 AM 69.8 °F 55.4 °F 60% 29.80 in 10.0 mi SW 12.7 mph - N/A   Clear
11:54 AM 69.8 °F 55.4 °F 60% 29.80 in 10.0 mi SW 11.5 mph - N/A   Clear
12:15 PM 71.6 °F 55.4 °F 57% 29.81 in 10.0 mi SW 9.2 mph - N/A   Clear
12:34 PM 69.8 °F 55.4 °F 60% 29.82 in 10.0 mi West 9.2 mph - N/A   Clear
12:54 PM 69.8 °F 55.4 °F 60% 29.82 in 10.0 mi WNW 5.8 mph - N/A   Clear
1:15 PM 71.6 °F 57.2 °F 60% 29.82 in 10.0 mi WNW 6.9 mph - N/A   Clear
1:34 PM 71.6 °F 55.4 °F 57% 29.82 in 10.0 mi NW 9.2 mph - N/A   Clear
1:54 PM 71.6 °F 55.4 °F 57% 29.84 in 10.0 mi NW 3.5 mph - N/A   Clear
2:15 PM 71.6 °F 55.4 °F 57% 29.85 in 10.0 mi WNW 3.5 mph - N/A   Scattered Clouds
2:34 PM 71.6 °F 55.4 °F 57% 29.85 in 10.0 mi NW 3.5 mph - N/A   Scattered Clouds
2:54 PM 71.6 °F 57.2 °F 60% 29.85 in 10.0 mi Calm Calm - N/A   Clear
3:15 PM 71.6 °F 57.2 °F 60% 29.84 in 10.0 mi ENE 3.5 mph - N/A   Clear
3:34 PM 69.8 °F 57.2 °F 64% 29.85 in 10.0 mi Calm Calm - N/A   Mostly Cloudy
3:54 PM 69.8 °F 57.2 °F 64% 29.85 in 10.0 mi Calm Calm - N/A   Mostly Cloudy
4:15 PM 68.0 °F 59.0 °F 73% 29.84 in 10.0 mi ENE 3.5 mph - N/A Rain Light Rain
4:34 PM 66.2 °F 59.0 °F 78% 29.86 in 10.0 mi North 9.2 mph - N/A   Mostly Cloudy
4:54 PM 62.6 °F 57.2 °F 82% 29.86 in 10.0 mi North 9.2 mph - N/A Rain Light Rain
5:14 PM 62.6 °F 57.2 °F 82% 29.87 in 10.0 mi North 6.9 mph - N/A   Clear
5:34 PM 62.6 °F 57.2 °F 82% 29.88 in 10.0 mi NNE 8.1 mph - N/A   Mostly Cloudy
5:54 PM 62.6 °F 57.2 °F 82% 29.88 in 10.0 mi NNE 8.1 mph - N/A   Mostly Cloudy
6:14 PM 62.6 °F 57.2 °F 82% 29.89 in 10.0 mi NNE 5.8 mph - N/A   Overcast
6:34 PM 62.6 °F 57.2 °F 82% 29.89 in 10.0 mi NNE 8.1 mph - N/A   Overcast
6:54 PM 62.6 °F 57.2 °F 82% 29.90 in 10.0 mi NNE 6.9 mph - N/A   Overcast
7:14 PM 62.6 °F 57.2 °F 82% 29.90 in 10.0 mi NNE 5.8 mph - N/A Rain Rain
7:34 PM 62.6 °F 57.2 °F 82% 29.91 in 10.0 mi NNE 4.6 mph - N/A   Overcast
7:54 PM 60.8 °F 55.4 °F 82% 29.91 in 10.0 mi North 3.5 mph - N/A   Overcast
8:14 PM 60.8 °F 55.4 °F 82% 29.92 in 10.0 mi Calm Calm - N/A   Overcast
8:34 PM 60.8 °F 55.4 °F 82% 29.93 in 10.0 mi NNW 4.6 mph - N/A   Mostly Cloudy
8:54 PM 60.8 °F 55.4 °F 82% 29.94 in 10.0 mi North 3.5 mph - N/A   Mostly Cloudy
9:14 PM 59.0 °F 53.6 °F 82% 29.94 in 10.0 mi NNW 8.1 mph - N/A   Scattered Clouds
9:34 PM 60.8 °F 53.6 °F 77% 29.95 in 10.0 mi North 6.9 mph - N/A   Clear
9:54 PM 59.0 °F 53.6 °F 82% 29.95 in 10.0 mi North 6.9 mph - N/A   Clear
10:14 PM 57.2 °F 51.8 °F 82% 29.96 in 10.0 mi North 8.1 mph - N/A   Clear
10:34 PM 57.2 °F 51.8 °F 82% 29.96 in 10.0 mi North 8.1 mph - N/A   Clear
10:54 PM 55.4 °F 51.8 °F 88% 29.97 in 10.0 mi North 10.4 mph - N/A   Clear
11:14 PM 55.4 °F 51.8 °F 88% 29.99 in 10.0 mi North 10.4 mph - N/A   Clear
11:34 PM 55.4 °F 50.0 °F 82% 30.00 in 10.0 mi North 10.4 mph - N/A   Scattered Clouds
11:55 PM 55.4 °F 50.0 °F 82% 30.01 in 10.0 mi NNE 9.2 mph - N/A   Mostly Cloudy